Time;durP1;ratioP1;P1;durP2;ratioP2;P2;SDS_P1;SDS_P2;PMS_P1;PMS_P2;Temp;Humidity;BMP_temperature;BMP_pressure;BME280_temperature;BME280_humidity;BME280_pressure;Samples;Min_cycle;Max_cycle;Signal;HPM_P1;HPM_P2
2023/06/21 00:01:00;;;;;;;16.70;15.10;;;;;;;21.55;64.27;100113.39;105669;1257;60467;-74
2023/06/21 00:03:28;;;;;;;18.10;16.30;;;;;;;21.54;64.21;100109.74;106125;1253;66688;-74
2023/06/21 00:05:56;;;;;;;17.60;15.80;;;;;;;21.53;64.11;100113.88;105736;1253;60490;-75
2023/06/21 00:08:23;;;;;;;18.00;16.10;;;;;;;21.53;64.08;100117.52;105761;1253;60395;-74
2023/06/21 00:10:51;;;;;;;18.10;16.30;;;;;;;21.51;63.99;100116.87;105554;1253;66349;-74
2023/06/21 00:13:18;;;;;;;17.70;16.00;;;;;;;21.51;64.06;100119.26;105530;1258;60499;-74
2023/06/21 00:15:46;;;;;;;17.00;15.30;;;;;;;21.50;63.97;100125.41;105700;1253;66820;-74
2023/06/21 00:18:14;;;;;;;17.30;15.60;;;;;;;21.50;64.02;100124.02;105747;1252;60903;-74
2023/06/21 00:20:41;;;;;;;17.00;15.30;;;;;;;21.50;63.90;100128.14;105659;1258;60529;-73
2023/06/21 00:23:09;;;;;;;16.30;14.70;;;;;;;21.48;63.83;100133.35;105763;1252;67277;-74
2023/06/21 00:25:36;;;;;;;17.10;15.50;;;;;;;21.47;63.69;100132.48;105751;1253;61036;-74
2023/06/21 00:28:06;;;;;;;15.80;14.40;;;;;;;21.44;63.78;100129.42;105865;1256;64510;-74
2023/06/21 00:30:33;;;;;;;15.40;13.90;;;;;;;21.43;63.84;100130.65;105598;1259;60476;-74
2023/06/21 00:33:02;;;;;;;15.50;13.90;;;;;;;21.42;63.74;100128.01;105676;1258;63069;-75
2023/06/21 00:35:30;;;;;;;16.10;14.20;;;;;;;21.42;63.69;100124.61;105734;1260;67729;-74
2023/06/21 00:37:58;;;;;;;15.30;13.90;;;;;;;21.43;63.69;100125.48;105855;1259;60907;-75
2023/06/21 00:40:25;;;;;;;14.90;13.60;;;;;;;21.43;63.78;100124.59;105646;1253;66628;-76
2023/06/21 00:43:03;;;;;;;14.80;13.30;;;;;;;21.42;63.78;100122.66;105451;1260;60556;-73
2023/06/21 00:45:40;;;;;;;15.50;14.00;;;;;;;21.42;63.58;100121.83;105478;1253;60465;-76
2023/06/21 00:48:07;;;;;;;15.30;13.90;;;;;;;21.41;63.59;100122.77;105691;1254;65941;-75
2023/06/21 00:50:38;;;;;;;17.20;14.00;;;;;;;21.40;63.48;100123.55;105771;1253;60579;-74
2023/06/21 00:53:07;;;;;;;15.30;13.60;;;;;;;21.36;63.43;100125.85;105744;1256;65091;-73
2023/06/21 00:55:34;;;;;;;15.90;13.20;;;;;;;21.32;63.25;100118.66;105750;1253;60529;-77
2023/06/21 00:58:02;;;;;;;19.30;13.50;;;;;;;21.28;63.35;100118.48;105726;1253;60495;-76
2023/06/21 01:00:30;;;;;;;15.60;14.10;;;;;;;21.23;63.34;100119.05;105657;1254;67841;-77
2023/06/21 01:02:58;;;;;;;16.10;14.60;;;;;;;21.18;63.32;100113.96;105807;1257;60384;-77
2023/06/21 01:05:26;;;;;;;16.70;14.00;;;;;;;21.11;63.33;100119.91;105735;1257;65190;-74
2023/06/21 01:08:19;;;;;;;16.30;14.50;;;;;;;21.05;63.55;100121.70;105653;1258;60429;-75
2023/06/21 01:11:31;;;;;;;16.70;15.20;;;;;;;21.00;63.58;100121.31;105386;1254;60349;-75
2023/06/21 01:14:31;;;;;;;16.60;14.50;;;;;;;20.94;63.55;100116.52;105146;1259;67176;-73
2023/06/21 01:17:00;;;;;;;16.10;14.60;;;;;;;20.89;63.81;100114.97;105138;1259;62371;-75
2023/06/21 01:19:32;;;;;;;16.10;14.50;;;;;;;20.87;64.00;100114.88;105595;1257;66754;-74
2023/06/21 01:22:00;;;;;;;15.90;14.20;;;;;;;20.86;64.17;100116.93;105651;1258;60537;-73
2023/06/21 01:24:37;;;;;;;16.80;14.80;;;;;;;20.85;64.25;100111.23;105570;1254;60488;-75
2023/06/21 01:27:16;;;;;;;16.80;14.70;;;;;;;20.85;64.27;100112.42;105684;1253;67264;-75
2023/06/21 01:29:45;;;;;;;16.50;15.00;;;;;;;20.85;64.34;100113.16;105683;1261;60656;-75
2023/06/21 01:32:13;;;;;;;17.30;15.40;;;;;;;20.81;64.55;100116.84;105682;1256;65246;-74
2023/06/21 01:34:40;;;;;;;17.10;15.10;;;;;;;20.81;64.60;100117.92;105619;1258;60445;-74
2023/06/21 01:37:08;;;;;;;16.50;14.90;;;;;;;20.80;64.63;100118.04;105725;1252;60610;-75
2023/06/21 01:39:36;;;;;;;16.50;14.80;;;;;;;20.79;64.50;100116.58;105837;1253;66403;-74
2023/06/21 01:42:05;;;;;;;16.40;14.80;;;;;;;20.78;64.55;100112.98;105817;1258;60409;-74
2023/06/21 01:44:33;;;;;;;16.60;14.90;;;;;;;20.76;64.53;100108.39;105819;1253;65496;-74
2023/06/21 01:47:00;;;;;;;16.90;15.10;;;;;;;20.74;64.43;100107.45;105782;1260;60423;-75
2023/06/21 01:49:28;;;;;;;16.60;15.00;;;;;;;20.71;64.35;100108.16;105568;1255;60418;-74
2023/06/21 01:51:56;;;;;;;16.40;14.80;;;;;;;20.68;64.25;100110.17;105648;1253;66376;-73
2023/06/21 01:54:25;;;;;;;16.10;14.50;;;;;;;20.65;64.27;100114.72;105620;1253;60587;-74
2023/06/21 01:56:58;;;;;;;17.80;15.00;;;;;;;20.61;64.32;100113.04;105506;1254;66801;-74
2023/06/21 01:59:30;;;;;;;16.50;14.80;;;;;;;20.56;64.51;100110.90;105547;1253;60851;-74
2023/06/21 02:01:57;;;;;;;16.60;14.90;;;;;;;20.55;64.62;100107.87;105472;1260;60439;-75
2023/06/21 02:04:29;;;;;;;15.20;13.80;;;;;;;20.53;64.57;100110.11;105697;1253;66690;-74
2023/06/21 02:06:56;;;;;;;16.50;14.80;;;;;;;20.52;64.35;100112.47;105758;1259;60498;-74
2023/06/21 02:09:24;;;;;;;16.10;14.40;;;;;;;20.49;64.34;100114.00;105638;1253;65626;-74
2023/06/21 02:11:52;;;;;;;15.40;13.90;;;;;;;20.44;64.37;100112.79;105306;1261;235123;-74
2023/06/21 02:14:20;;;;;;;16.40;14.80;;;;;;;20.40;64.31;100112.20;105837;1258;60404;-75
2023/06/21 02:16:48;;;;;;;15.50;14.00;;;;;;;20.38;64.42;100114.05;105656;1253;67593;-74
2023/06/21 02:19:17;;;;;;;15.70;14.20;;;;;;;20.37;64.56;100115.07;105777;1258;60483;-74
2023/06/21 02:21:45;;;;;;;16.20;14.50;;;;;;;20.38;64.69;100122.47;105843;1253;65592;-74
2023/06/21 02:24:14;;;;;;;15.50;14.10;;;;;;;20.38;64.99;100125.55;105765;1258;60487;-74
2023/06/21 02:26:41;;;;;;;16.40;14.90;;;;;;;20.46;64.99;100126.40;105632;1253;60426;-73
2023/06/21 02:29:11;;;;;;;16.30;14.70;;;;;;;20.49;65.09;100124.91;105824;1253;66949;-74
2023/06/21 02:31:39;;;;;;;16.90;15.10;;;;;;;20.54;65.25;100124.66;105799;1253;60984;-73
2023/06/21 02:34:06;;;;;;;16.60;14.90;;;;;;;20.59;65.30;100121.63;105717;1258;65867;-74
2023/06/21 02:36:38;;;;;;;16.50;14.90;;;;;;;20.64;65.22;100123.70;105698;1257;60498;-75
2023/06/21 02:39:06;;;;;;;16.70;15.10;;;;;;;20.68;65.19;100125.13;105529;1259;60536;-75
2023/06/21 02:41:34;;;;;;;16.70;15.00;;;;;;;20.74;65.26;100121.95;105589;1258;67405;-75
2023/06/21 02:44:01;;;;;;;16.60;15.00;;;;;;;20.79;65.39;100124.09;105605;1258;60449;-73
2023/06/21 02:46:30;;;;;;;16.10;14.60;;;;;;;20.85;65.44;100120.92;105493;1259;65628;-73
2023/06/21 02:48:58;;;;;;;21.00;15.20;;;;;;;20.89;65.51;100119.14;105463;1256;60527;-74
2023/06/21 02:51:26;;;;;;;17.50;15.90;;;;;;;20.94;65.75;100116.53;105575;1258;60845;-73
2023/06/21 02:53:54;;;;;;;17.20;15.50;;;;;;;20.98;65.69;100120.08;105568;1258;67563;-74
2023/06/21 02:56:21;;;;;;;17.30;15.70;;;;;;;21.03;65.62;100120.19;105507;1253;60523;-73
2023/06/21 02:58:49;;;;;;;17.30;15.60;;;;;;;21.08;65.69;100124.02;105442;1259;65621;-75
2023/06/21 03:01:17;;;;;;;17.90;16.20;;;;;;;21.12;65.80;100126.48;105672;1253;60502;-74
2023/06/21 03:03:44;;;;;;;18.40;16.60;;;;;;;21.18;65.69;100127.44;105529;1253;60613;-74
2023/06/21 03:06:12;;;;;;;18.50;16.70;;;;;;;21.22;65.59;100123.90;105578;1256;66899;-74
2023/06/21 03:08:40;;;;;;;18.50;16.60;;;;;;;21.26;65.73;100123.74;105671;1253;60578;-75
2023/06/21 03:11:08;;;;;;;18.00;16.20;;;;;;;21.29;65.65;100127.29;105655;1258;66640;-74
2023/06/21 03:13:37;;;;;;;18.30;15.80;;;;;;;21.31;65.39;100127.02;105671;1254;60971;-74
2023/06/21 03:16:04;;;;;;;17.80;15.90;;;;;;;21.32;65.40;100129.88;105263;1253;62409;-75
2023/06/21 03:18:32;;;;;;;17.00;15.30;;;;;;;21.32;65.25;100131.12;105588;1253;66881;-74
2023/06/21 03:21:01;;;;;;;17.20;15.60;;;;;;;21.37;65.16;100135.33;105682;1258;60366;-74
2023/06/21 03:23:29;;;;;;;17.40;15.70;;;;;;;21.39;65.39;100132.23;105639;1258;65725;-74
2023/06/21 03:25:57;;;;;;;17.10;15.40;;;;;;;21.42;65.20;100138.11;105384;1260;60549;-75
2023/06/21 03:28:24;;;;;;;17.00;15.20;;;;;;;21.46;65.19;100137.69;105651;1253;60509;-74
2023/06/21 03:30:52;;;;;;;18.30;15.80;;;;;;;21.50;65.10;100140.80;105561;1256;66853;-74
2023/06/21 03:33:20;;;;;;;16.80;15.10;;;;;;;21.54;65.07;100142.83;105691;1258;60445;-74
2023/06/21 03:35:48;;;;;;;17.90;16.20;;;;;;;21.59;65.07;100136.63;105712;1259;65595;-75
2023/06/21 03:38:17;;;;;;;17.80;16.20;;;;;;;21.63;64.86;100138.02;105702;1254;60465;-75
2023/06/21 03:40:45;;;;;;;20.00;16.70;;;;;;;21.65;64.76;100139.77;105435;1255;60420;-74
2023/06/21 03:43:13;;;;;;;18.60;16.90;;;;;;;21.67;64.68;100143.79;105583;1259;67801;-74
2023/06/21 03:45:44;;;;;;;19.90;18.00;;;;;;;21.69;64.70;100143.66;105773;1253;60768;-74
2023/06/21 03:48:12;;;;;;;19.50;17.40;;;;;;;21.71;64.57;100150.80;105622;1256;66701;-74
2023/06/21 03:50:42;;;;;;;19.30;17.40;;;;;;;21.75;64.48;100149.09;105438;1256;60429;-75
2023/06/21 03:53:10;;;;;;;20.60;18.50;;;;;;;21.79;64.61;100145.32;105439;1253;60352;-73
2023/06/21 03:55:37;;;;;;;21.00;18.90;;;;;;;21.81;64.45;100147.77;105678;1254;66399;-74
2023/06/21 03:58:06;;;;;;;21.40;19.20;;;;;;;21.80;64.32;100147.10;105709;1254;60463;-74
2023/06/21 04:00:34;;;;;;;21.30;19.30;;;;;;;21.81;64.37;100150.77;105649;1256;66320;-74
2023/06/21 04:03:02;;;;;;;20.90;18.90;;;;;;;21.84;64.43;100153.80;105741;1256;60593;-76
2023/06/21 04:05:31;;;;;;;22.10;19.70;;;;;;;21.87;64.63;100155.13;105511;1253;60451;-75
2023/06/21 04:08:01;;;;;;;21.10;19.10;;;;;;;21.89;64.52;100154.31;105835;1253;67339;-75
2023/06/21 04:10:29;;;;;;;21.80;19.60;;;;;;;21.93;64.39;100156.73;105773;1253;60513;-77
2023/06/21 04:12:57;;;;;;;21.00;19.00;;;;;;;22.00;64.44;100152.33;105804;1258;65261;-75
2023/06/21 04:15:26;;;;;;;21.10;19.00;;;;;;;22.06;64.43;100153.93;105674;1258;60528;-75
2023/06/21 04:17:54;;;;;;;21.30;19.20;;;;;;;22.10;64.42;100159.13;105466;1253;60536;-75
2023/06/21 04:20:22;;;;;;;22.00;20.00;;;;;;;22.15;64.38;100164.98;105682;1253;68076;-75
2023/06/21 04:22:49;;;;;;;21.60;19.50;;;;;;;22.20;64.33;100170.02;105742;1258;60446;-75
2023/06/21 04:25:18;;;;;;;22.10;19.80;;;;;;;22.24;64.22;100173.50;105867;1258;66692;-75
2023/06/21 04:27:45;;;;;;;22.30;20.10;;;;;;;22.29;64.30;100169.76;105487;1253;60406;-74
2023/06/21 04:30:16;;;;;;;22.00;19.70;;;;;;;22.31;64.29;100168.86;105563;1253;60455;-75
2023/06/21 04:32:46;;;;;;;22.20;20.00;;;;;;;22.34;64.39;100166.20;105757;1259;67386;-75
2023/06/21 04:35:16;;;;;;;22.60;20.30;;;;;;;22.41;64.29;100165.43;105703;1255;60855;-75
2023/06/21 04:37:46;;;;;;;22.70;20.60;;;;;;;22.45;64.30;100167.00;105683;1259;66308;-73
2023/06/21 04:40:17;;;;;;;24.80;20.50;;;;;;;22.50;64.39;100164.09;105758;1262;60540;-73
2023/06/21 04:42:47;;;;;;;22.40;20.20;;;;;;;22.56;64.49;100162.76;105734;1253;60511;-74
2023/06/21 04:45:16;;;;;;;22.60;20.40;;;;;;;22.61;64.39;100161.58;105834;1253;68166;-74
2023/06/21 04:47:46;;;;;;;23.20;21.00;;;;;;;22.65;64.59;100163.31;105882;1256;60432;-74
2023/06/21 04:50:15;;;;;;;22.60;20.30;;;;;;;22.73;64.66;100164.02;105781;1259;65643;-75
2023/06/21 04:52:49;;;;;;;21.70;19.70;;;;;;;22.82;64.78;100163.17;105641;1258;60447;-73
2023/06/21 04:55:18;;;;;;;21.90;19.80;;;;;;;22.91;64.80;100168.88;105779;1253;60428;-74
2023/06/21 04:57:47;;;;;;;21.60;19.10;;;;;;;22.99;64.66;100174.17;105741;1252;66674;-74
2023/06/21 05:00:15;;;;;;;21.70;19.40;;;;;;;23.09;64.78;100170.27;105802;1253;61020;-75
2023/06/21 05:02:42;;;;;;;21.40;19.30;;;;;;;23.20;64.51;100170.85;105814;1253;65730;-75
2023/06/21 05:05:10;;;;;;;23.20;19.30;;;;;;;23.29;64.46;100169.92;105584;1254;60544;-75
2023/06/21 05:07:38;;;;;;;21.30;19.10;;;;;;;23.38;64.15;100172.73;105695;1258;60461;-74
2023/06/21 05:10:07;;;;;;;20.50;18.50;;;;;;;23.47;63.80;100173.42;105652;1253;67296;-74
2023/06/21 05:12:35;;;;;;;18.90;16.90;;;;;;;23.54;63.44;100172.45;105720;1253;60687;-74
2023/06/21 05:15:05;;;;;;;20.40;18.30;;;;;;;23.62;63.09;100173.79;105791;1256;66723;-74
2023/06/21 05:17:34;;;;;;;21.10;18.80;;;;;;;23.72;62.96;100175.55;105543;1253;60506;-74
2023/06/21 05:20:03;;;;;;;20.70;18.50;;;;;;;23.80;62.74;100177.51;105619;1253;60515;-73
2023/06/21 05:22:31;;;;;;;20.00;18.00;;;;;;;23.89;62.39;100175.27;105607;1258;67922;-74
2023/06/21 05:25:03;;;;;;;19.90;17.90;;;;;;;23.97;62.16;100177.78;105573;1254;60679;-75
2023/06/21 05:27:31;;;;;;;20.70;18.60;;;;;;;24.05;61.82;100176.84;105479;1253;66042;-73
2023/06/21 05:29:59;;;;;;;21.60;18.50;;;;;;;24.16;61.54;100181.55;105509;1259;60442;-74
2023/06/21 05:32:26;;;;;;;21.50;18.20;;;;;;;24.23;61.21;100190.98;105674;1259;60358;-74
2023/06/21 05:34:54;;;;;;;19.20;17.20;;;;;;;24.29;61.12;100200.80;105858;1259;67436;-76
2023/06/21 05:37:22;;;;;;;18.90;17.10;;;;;;;24.38;60.82;100199.95;105557;1253;61343;-74
2023/06/21 05:39:50;;;;;;;19.50;17.20;;;;;;;24.45;60.41;100197.45;105568;1256;66815;-74
2023/06/21 05:42:19;;;;;;;21.00;17.70;;;;;;;24.52;60.16;100197.91;105630;1256;60940;-75
2023/06/21 05:44:47;;;;;;;20.20;18.20;;;;;;;24.59;60.16;100200.57;105421;1261;60500;-73
2023/06/21 05:47:14;;;;;;;20.40;17.90;;;;;;;24.64;59.83;100198.05;105714;1259;67378;-74
2023/06/21 05:49:42;;;;;;;19.50;17.70;;;;;;;24.66;59.44;100198.91;105807;1253;60737;-74
2023/06/21 05:52:09;;;;;;;19.50;17.50;;;;;;;24.68;59.52;100200.13;105738;1257;66975;-74
2023/06/21 05:54:41;;;;;;;19.30;17.30;;;;;;;24.71;59.62;100200.49;105710;1253;60802;-74
2023/06/21 05:57:09;;;;;;;20.00;18.00;;;;;;;24.74;59.35;100204.01;106035;1259;60507;-77
2023/06/21 05:59:37;;;;;;;19.40;17.40;;;;;;;24.76;59.02;100206.02;105480;1256;66883;-76
2023/06/21 06:02:05;;;;;;;19.30;17.50;;;;;;;24.78;58.86;100205.00;105539;1253;60938;-78
2023/06/21 06:04:33;;;;;;;19.10;17.20;;;;;;;24.74;58.54;100203.84;105729;1257;65621;-77
2023/06/21 06:07:01;;;;;;;19.50;17.20;;;;;;;24.72;58.35;100202.98;105820;1257;60471;-76
2023/06/21 06:09:28;;;;;;;19.10;17.20;;;;;;;24.77;58.37;100208.64;105525;1261;60341;-79
2023/06/21 06:11:56;;;;;;;19.00;17.10;;;;;;;24.85;58.52;100211.39;105620;1254;67999;-76
2023/06/21 06:14:24;;;;;;;20.00;18.10;;;;;;;24.91;58.47;100210.98;105721;1260;60420;-82
2023/06/21 06:16:52;;;;;;;18.60;16.80;;;;;;;24.95;58.31;100211.41;105468;1259;66539;-84
2023/06/21 06:19:20;;;;;;;19.40;17.40;;;;;;;25.01;58.31;100213.30;105627;1253;60396;-82
2023/06/21 06:21:48;;;;;;;18.60;16.80;;;;;;;25.08;58.24;100216.50;105699;1253;60863;-78
2023/06/21 06:24:15;;;;;;;19.00;17.10;;;;;;;25.19;58.27;100214.83;105637;1258;67369;-83
2023/06/21 06:26:43;;;;;;;18.90;17.00;;;;;;;25.27;58.08;100216.00;105740;1259;60384;-76
2023/06/21 06:29:10;;;;;;;19.00;17.00;;;;;;;25.33;57.75;100215.45;105569;1253;66307;-79
2023/06/21 06:31:39;;;;;;;18.20;16.50;;;;;;;25.43;57.35;100217.30;105481;1253;60617;-72
2023/06/21 06:34:07;;;;;;;18.50;16.80;;;;;;;25.49;56.85;100220.38;105461;1253;60453;-77
2023/06/21 06:36:34;;;;;;;17.80;16.10;;;;;;;25.56;56.70;100221.55;105621;1253;67824;-79
2023/06/21 06:39:02;;;;;;;16.20;14.70;;;;;;;25.62;56.33;100227.27;105670;1253;60979;-76
2023/06/21 06:41:30;;;;;;;17.10;15.40;;;;;;;25.64;56.06;100227.80;105881;1254;66894;-75
2023/06/21 06:44:04;;;;;;;16.20;14.60;;;;;;;25.65;55.86;100223.52;105816;1259;60558;-75
2023/06/21 06:46:31;;;;;;;18.10;16.30;;;;;;;25.69;55.72;100223.22;106167;1259;60489;-75
2023/06/21 06:48:59;;;;;;;17.80;15.50;;;;;;;25.74;55.70;100225.84;106150;1256;66333;-72
2023/06/21 06:51:27;;;;;;;18.30;16.30;;;;;;;25.82;56.10;100227.46;106000;1257;60341;-73
2023/06/21 06:53:56;;;;;;;18.20;16.10;;;;;;;25.92;55.86;100231.52;106160;1259;65648;-78
2023/06/21 06:56:30;;;;;;;17.00;15.30;;;;;;;26.01;55.37;100232.50;105929;1258;60734;-75
2023/06/21 06:58:58;;;;;;;16.30;14.70;;;;;;;26.06;54.56;100228.95;105847;1253;60439;-74
2023/06/21 07:01:27;;;;;;;16.00;14.30;;;;;;;26.08;54.07;100226.01;105804;1258;68083;-75
2023/06/21 07:03:56;;;;;;;19.40;16.50;;;;;;;26.13;54.20;100230.06;105899;1257;60429;-75
2023/06/21 07:06:24;;;;;;;17.30;15.40;;;;;;;26.19;54.19;100226.23;105888;1260;66230;-77
2023/06/21 07:08:52;;;;;;;16.40;14.50;;;;;;;26.28;53.98;100228.59;105645;1259;60432;-76
2023/06/21 07:11:19;;;;;;;16.10;14.50;;;;;;;26.38;53.79;100223.39;105913;1253;60524;-76
2023/06/21 07:13:47;;;;;;;17.10;15.00;;;;;;;26.45;53.92;100219.77;105736;1258;66324;-76
2023/06/21 07:16:15;;;;;;;16.90;15.10;;;;;;;26.53;53.87;100222.03;105972;1259;61103;-74
2023/06/21 07:18:42;;;;;;;17.10;15.30;;;;;;;26.59;53.69;100220.02;105757;1253;66269;-73
2023/06/21 07:21:10;;;;;;;20.30;14.20;;;;;;;26.66;53.72;100225.14;105866;1253;60414;-75
2023/06/21 07:23:38;;;;;;;15.80;14.10;;;;;;;26.76;53.52;100226.56;106660;1253;60429;-74
2023/06/21 07:26:06;;;;;;;15.20;13.20;;;;;;;26.84;53.17;100229.45;105832;1259;67389;-75
2023/06/21 07:28:34;;;;;;;14.40;12.90;;;;;;;26.93;52.70;100229.27;105729;1256;60226;-75
2023/06/21 07:31:03;;;;;;;18.60;13.20;;;;;;;27.06;52.21;100231.83;105708;1258;66071;-73
2023/06/21 07:33:30;;;;;;;24.40;13.50;;;;;;;27.16;51.90;100227.68;105799;1259;60915;-74
2023/06/21 07:35:58;;;;;;;16.10;13.60;;;;;;;27.29;51.67;100222.91;105727;1255;60465;-74
2023/06/21 07:38:28;;;;;;;17.30;13.70;;;;;;;27.42;51.37;100229.23;105726;1255;66656;-74
2023/06/21 07:40:56;;;;;;;15.00;13.10;;;;;;;27.50;50.98;100229.84;105755;1258;61188;-75
2023/06/21 07:43:23;;;;;;;14.40;12.90;;;;;;;27.56;50.72;100229.17;105767;1258;66551;-75
2023/06/21 07:45:51;;;;;;;14.20;11.00;;;;;;;27.65;50.26;100230.73;105866;1259;60485;-74
2023/06/21 07:48:39;;;;;;;12.20;10.80;;;;;;;27.78;48.99;100231.10;105846;1259;60343;-74
2023/06/21 07:51:06;;;;;;;11.30;10.10;;;;;;;27.94;48.36;100232.76;105919;1258;67735;-74
2023/06/21 07:53:34;;;;;;;12.40;11.20;;;;;;;28.10;47.92;100235.74;105912;1258;60363;-75
2023/06/21 07:56:02;;;;;;;12.90;11.60;;;;;;;28.23;47.79;100237.39;105824;1258;66653;-75
2023/06/21 07:58:29;;;;;;;12.90;11.50;;;;;;;28.37;47.67;100242.09;105719;1256;60329;-76
2023/06/21 08:00:57;;;;;;;13.20;11.90;;;;;;;28.47;47.48;100244.77;105674;1254;60403;-76
2023/06/21 08:03:25;;;;;;;14.20;10.90;;;;;;;28.52;47.21;100251.22;105872;1258;67805;-75
2023/06/21 08:05:52;;;;;;;12.60;11.30;;;;;;;28.59;47.38;100246.14;105736;1252;61113;-75
2023/06/21 08:08:20;;;;;;;14.30;11.90;;;;;;;28.65;46.88;100247.79;105644;1253;66654;-75
2023/06/21 08:10:47;;;;;;;15.00;12.90;;;;;;;28.69;46.66;100245.41;105858;1254;60395;-76
2023/06/21 08:13:18;;;;;;;14.60;13.00;;;;;;;28.70;46.44;100244.17;105774;1254;60475;-74
2023/06/21 08:15:46;;;;;;;19.20;13.60;;;;;;;28.70;46.50;100242.21;105843;1253;67712;-73
2023/06/21 08:18:13;;;;;;;14.80;13.30;;;;;;;28.70;46.66;100239.73;105646;1260;60428;-74
2023/06/21 08:20:41;;;;;;;14.60;13.00;;;;;;;28.71;46.84;100238.70;105836;1256;65236;-75
2023/06/21 08:23:09;;;;;;;14.30;12.80;;;;;;;28.74;46.89;100236.67;105798;1253;60519;-73
2023/06/21 08:25:36;;;;;;;16.40;12.80;;;;;;;28.80;47.16;100234.57;105614;1259;61011;-75
2023/06/21 08:28:04;;;;;;;17.30;13.30;;;;;;;28.86;47.49;100234.51;105833;1259;66729;-74
2023/06/21 08:30:31;;;;;;;14.00;12.70;;;;;;;28.95;47.43;100238.33;105717;1259;60431;-75
2023/06/21 08:32:59;;;;;;;16.70;14.20;;;;;;;29.05;47.61;100236.89;105785;1259;66026;-74
2023/06/21 08:35:27;;;;;;;16.50;13.20;;;;;;;29.11;47.15;100235.61;105761;1259;60576;-74
2023/06/21 08:37:58;;;;;;;18.40;13.20;;;;;;;29.12;47.05;100238.29;105728;1268;60437;-74
2023/06/21 08:40:38;;;;;;;17.50;13.20;;;;;;;29.19;47.01;100239.34;105754;1254;66600;-74
2023/06/21 08:43:05;;;;;;;14.40;12.30;;;;;;;29.26;47.08;100241.30;105771;1252;60651;-75
2023/06/21 08:45:33;;;;;;;18.40;12.90;;;;;;;29.36;46.73;100239.00;105627;1256;66814;-74
2023/06/21 08:48:01;;;;;;;14.80;12.60;;;;;;;29.47;46.51;100230.85;105760;1259;60516;-75
2023/06/21 08:50:29;;;;;;;14.30;12.60;;;;;;;29.56;46.27;100233.95;105605;1259;60376;-74
2023/06/21 08:52:58;;;;;;;13.50;12.20;;;;;;;29.66;46.06;100237.02;105850;1254;67754;-75
2023/06/21 08:55:25;;;;;;;14.80;12.20;;;;;;;29.76;45.44;100229.20;105852;1259;60990;-75
2023/06/21 08:57:57;;;;;;;18.20;11.50;;;;;;;29.88;45.26;100223.88;105874;1256;65637;-73
2023/06/21 09:00:31;;;;;;;12.80;11.20;;;;;;;30.05;45.22;100225.10;105860;1259;60535;-73
2023/06/21 09:03:05;;;;;;;13.40;11.80;;;;;;;30.20;44.62;100219.14;105937;1267;60394;-74
2023/06/21 09:05:54;;;;;;;12.10;11.00;;;;;;;30.28;44.35;100215.79;106026;1258;66376;-73
2023/06/21 09:08:22;;;;;;;12.10;10.60;;;;;;;30.34;43.88;100214.55;106068;1260;60408;-73
2023/06/21 09:10:50;;;;;;;12.60;10.90;;;;;;;30.41;43.08;100217.13;105841;1258;66670;-73
2023/06/21 09:13:19;;;;;;;11.90;10.60;;;;;;;30.41;42.23;100216.25;105858;1257;60515;-75
2023/06/21 09:15:48;;;;;;;10.80;9.80;;;;;;;30.40;42.67;100217.08;105838;1256;60367;-74
2023/06/21 09:18:16;;;;;;;11.60;10.40;;;;;;;30.52;42.71;100213.92;105940;1259;66736;-72
2023/06/21 09:20:48;;;;;;;12.30;10.40;;;;;;;30.70;42.49;100215.32;106071;1254;61219;-70
2023/06/21 09:23:16;;;;;;;11.60;9.70;;;;;;;30.86;41.62;100222.67;106041;1255;76181;-72
2023/06/21 09:25:44;;;;;;;14.10;9.60;;;;;;;30.87;41.24;100236.70;106083;1255;60563;-71
2023/06/21 09:28:12;;;;;;;12.80;9.90;;;;;;;30.82;41.09;100238.67;106027;1259;60376;-73
2023/06/21 09:30:41;;;;;;;10.70;9.70;;;;;;;30.68;41.17;100228.94;105907;1261;67536;-75
2023/06/21 09:33:10;;;;;;;14.50;10.10;;;;;;;30.52;41.31;100217.79;105986;1258;61110;-74
2023/06/21 09:35:38;;;;;;;12.30;9.50;;;;;;;30.39;41.42;100218.63;105790;1259;65673;-73
2023/06/21 09:38:28;;;;;;;11.50;10.30;;;;;;;30.23;41.87;100231.00;105899;1267;60550;-74
2023/06/21 09:40:55;;;;;;;12.90;10.00;;;;;;;30.08;42.41;100237.55;105951;1254;63053;-71
2023/06/21 09:43:23;;;;;;;11.60;10.40;;;;;;;29.91;42.81;100237.80;105552;1260;67781;-72
2023/06/21 09:46:08;;;;;;;13.10;10.90;;;;;;;29.71;43.15;100245.77;105881;1260;60956;-75
2023/06/21 09:48:36;;;;;;;11.60;10.40;;;;;;;29.52;43.58;100258.54;105826;1254;66242;-76
2023/06/21 09:51:09;;;;;;;19.00;11.40;;;;;;;29.36;43.96;100267.91;105884;1259;60667;-75
2023/06/21 09:53:37;;;;;;;;;;;;;;;29.21;44.26;100282.73;105794;1259;60541;-75
2023/06/21 09:56:05;;;;;;;11.90;6.60;;;;;;;29.01;43.84;100288.73;105822;1261;66391;-75
2023/06/21 09:58:35;;;;;;;7.00;6.30;;;;;;;28.73;43.72;100289.35;105885;1254;60901;-78
2023/06/21 10:01:09;;;;;;;8.10;6.00;;;;;;;28.43;44.26;100286.64;105794;1254;65304;-76
2023/06/21 10:03:37;;;;;;;8.10;5.90;;;;;;;28.11;44.93;100291.54;105644;1270;60509;-72
2023/06/21 10:06:05;;;;;;;7.70;5.70;;;;;;;27.79;45.70;100296.38;105489;1254;60401;-73
2023/06/21 10:08:33;;;;;;;7.90;6.00;;;;;;;27.47;46.47;100307.69;105885;1258;66455;-73
2023/06/21 10:11:01;;;;;;;7.30;5.50;;;;;;;27.19;47.50;100310.27;105429;1254;60830;-74
2023/06/21 10:13:30;;;;;;;6.80;5.30;;;;;;;26.96;48.08;100306.70;105579;1260;65217;-73
2023/06/21 10:16:02;;;;;;;6.10;5.50;;;;;;;26.76;48.75;100303.40;105500;1256;60474;-73
2023/06/21 10:18:30;;;;;;;7.30;5.50;;;;;;;26.60;49.03;100292.98;105777;1260;60439;-73
2023/06/21 10:21:07;;;;;;;8.90;5.00;;;;;;;26.48;49.22;100287.40;105696;1259;67887;-71
2023/06/21 10:23:37;;;;;;;9.20;5.40;;;;;;;26.43;49.71;100285.66;105442;1260;60345;-72
2023/06/21 10:26:05;;;;;;;5.90;5.30;;;;;;;26.41;50.31;100284.69;105571;1259;65153;-72
2023/06/21 10:28:37;;;;;;;6.30;4.90;;;;;;;26.43;50.64;100282.90;105659;1266;61076;-72
2023/06/21 10:31:08;;;;;;;6.00;4.80;;;;;;;26.51;50.90;100282.02;105678;1255;60566;-72
2023/06/21 10:33:36;;;;;;;5.20;4.70;;;;;;;26.69;51.14;100275.90;105695;1258;66110;-73
2023/06/21 10:36:06;;;;;;;7.40;4.60;;;;;;;27.00;50.68;100274.00;105570;1254;60940;-78
2023/06/21 10:38:43;;;;;;;16.70;4.50;;;;;;;27.40;49.34;100274.70;105607;1258;65588;-75
2023/06/21 10:41:12;;;;;;;7.90;4.20;;;;;;;27.89;48.11;100273.85;105599;1260;60545;-74
2023/06/21 10:43:40;;;;;;;7.60;4.40;;;;;;;28.42;46.35;100267.38;105864;1259;60432;-76
2023/06/21 10:46:10;;;;;;;6.80;4.30;;;;;;;28.99;44.18;100261.44;105783;1258;66700;-75
2023/06/21 10:48:37;;;;;;;5.70;4.60;;;;;;;29.55;42.80;100264.02;105611;1260;60633;-75
2023/06/21 10:51:05;;;;;;;9.70;5.00;;;;;;;30.11;41.28;100261.50;105514;1260;65944;-74
2023/06/21 10:53:34;;;;;;;6.90;4.90;;;;;;;30.60;40.58;100262.05;105739;1260;60509;-78
2023/06/21 10:56:04;;;;;;;5.20;4.70;;;;;;;30.95;39.33;100256.79;105756;1255;60516;-74
2023/06/21 10:58:32;;;;;;;9.30;5.20;;;;;;;31.19;38.77;100259.14;105782;1253;66798;-76
2023/06/21 11:00:59;;;;;;;9.00;5.40;;;;;;;31.42;38.64;100255.78;105572;1259;60510;-77
2023/06/21 11:03:28;;;;;;;6.90;6.30;;;;;;;31.68;38.32;100250.55;105637;1254;65498;-75
2023/06/21 11:05:56;;;;;;;7.90;6.20;;;;;;;31.90;38.49;100241.68;105810;1255;60553;-77
2023/06/21 11:08:30;;;;;;;9.80;6.10;;;;;;;32.05;38.62;100241.81;105717;1254;60553;-79
2023/06/21 11:10:58;;;;;;;5.80;5.20;;;;;;;32.24;37.87;100238.77;105701;1254;67490;-83
2023/06/21 11:13:34;;;;;;;6.70;5.50;;;;;;;32.39;36.89;100241.14;106012;1254;60965;-78